Time;durP1;ratioP1;P1;durP2;ratioP2;P2;SDS_P1;SDS_P2;PMS_P1;PMS_P2;Temp;Humidity;BMP_temperature;BMP_pressure;BME280_temperature;BME280_humidity;BME280_pressure;Samples;Min_cycle;Max_cycle;Signal;HPM_P1;HPM_P2
2024/01/28 00:01:47;;;;;;;9.00;3.57;;;;;;;2.37;82.09;101920.47;5070833;28;20691;-54
2024/01/28 00:04:15;;;;;;;8.03;3.13;;;;;;;2.36;82.22;101920.41;5071772;28;20606;-54
2024/01/28 00:06:43;;;;;;;9.07;3.77;;;;;;;2.33;82.10;101918.59;5071673;28;20204;-53
2024/01/28 00:09:11;;;;;;;17.47;4.77;;;;;;;2.28;82.93;101920.00;5071066;28;20327;-52
2024/01/28 00:11:39;;;;;;;9.57;3.23;;;;;;;2.26;82.90;101924.13;5071349;28;20209;-56
2024/01/28 00:14:07;;;;;;;12.87;3.73;;;;;;;2.27;82.99;101923.34;5062893;28;20212;-53
2024/01/28 00:16:35;;;;;;;11.63;4.20;;;;;;;2.28;82.71;101927.63;5069324;28;20198;-54
2024/01/28 00:19:05;;;;;;;15.63;4.10;;;;;;;2.24;82.81;101928.25;5068783;28;20559;-53
2024/01/28 00:21:34;;;;;;;10.97;4.30;;;;;;;2.23;83.78;101928.19;5071622;28;20201;-56
2024/01/28 00:24:04;;;;;;;12.20;3.67;;;;;;;2.20;83.97;101933.09;5067764;28;20568;-53
2024/01/28 00:26:37;;;;;;;15.07;4.10;;;;;;;2.18;83.70;101946.63;5067575;28;20272;-51
2024/01/28 00:29:05;;;;;;;14.40;4.60;;;;;;;2.21;83.88;101956.09;5058376;28;20282;-53
2024/01/28 00:31:33;;;;;;;13.53;4.60;;;;;;;2.18;83.67;101946.63;5066439;28;20601;-53
2024/01/28 00:34:01;;;;;;;13.93;4.27;;;;;;;2.20;84.09;101954.31;5070221;28;20262;-53
2024/01/28 00:36:31;;;;;;;9.13;4.40;;;;;;;2.16;84.37;101952.41;5062457;28;20201;-54
2024/01/28 00:38:59;;;;;;;11.60;4.33;;;;;;;2.14;84.25;101966.72;5061599;28;20247;-55
2024/01/28 00:41:29;;;;;;;15.60;4.03;;;;;;;2.11;84.54;101977.59;5071135;28;20610;-58
2024/01/28 00:43:58;;;;;;;13.10;4.63;;;;;;;2.09;85.30;101970.69;5068211;28;20607;-54
2024/01/28 00:46:26;;;;;;;15.93;4.27;;;;;;;2.07;84.95;101973.16;5062841;28;20205;-55
2024/01/28 00:48:54;;;;;;;12.10;3.90;;;;;;;2.06;85.20;101979.03;5063523;28;20220;-57
2024/01/28 00:51:22;;;;;;;7.70;3.50;;;;;;;2.02;84.68;101971.13;5065785;28;20241;-55
2024/01/28 00:53:52;;;;;;;14.07;5.00;;;;;;;2.02;84.97;101979.63;5053102;28;20289;-52
2024/01/28 00:56:20;;;;;;;17.00;5.43;;;;;;;2.00;85.41;101986.31;5067741;28;20219;-55
2024/01/28 00:58:48;;;;;;;11.03;4.73;;;;;;;2.02;85.28;101991.47;5070680;28;20208;-58
2024/01/28 01:01:16;;;;;;;14.03;4.07;;;;;;;2.03;85.40;101996.66;5057206;28;20209;-53
2024/01/28 01:03:44;;;;;;;11.23;4.33;;;;;;;2.04;85.50;101989.91;5071159;28;20201;-55
2024/01/28 01:06:12;;;;;;;11.83;4.10;;;;;;;2.02;84.95;101983.84;5066485;28;20212;-54
2024/01/28 01:08:40;;;;;;;13.67;3.97;;;;;;;2.04;84.84;101992.44;5064309;28;20201;-56
2024/01/28 01:11:10;;;;;;;14.73;4.20;;;;;;;2.03;85.09;101993.25;5065612;28;20206;-55
2024/01/28 01:13:38;;;;;;;14.27;4.60;;;;;;;2.01;84.88;101992.28;5065738;28;20281;-54
2024/01/28 01:16:06;;;;;;;12.00;4.27;;;;;;;1.99;84.74;101991.31;5070708;28;20296;-54
2024/01/28 01:18:34;;;;;;;11.60;4.27;;;;;;;1.96;85.17;101988.63;5072081;28;20669;-54
2024/01/28 01:21:02;;;;;;;13.23;4.90;;;;;;;1.89;85.45;101987.41;5067300;28;20732;-54
2024/01/28 01:23:30;;;;;;;12.70;5.03;;;;;;;1.83;85.38;101994.69;5071972;28;20197;-54
2024/01/28 01:25:58;;;;;;;9.47;4.30;;;;;;;1.77;85.73;101995.25;5072921;28;20214;-53
2024/01/28 01:28:31;;;;;;;9.47;4.10;;;;;;;1.71;86.39;101987.25;5074366;28;20209;-53
2024/01/28 01:31:00;;;;;;;13.37;4.80;;;;;;;1.66;86.18;101991.22;5073429;28;20227;-54
2024/01/28 01:33:28;;;;;;;14.07;4.83;;;;;;;1.62;86.29;101987.63;5074446;28;20205;-56
2024/01/28 01:35:56;;;;;;;10.73;4.53;;;;;;;1.60;86.00;101989.19;5074043;28;20259;-55
2024/01/28 01:38:24;;;;;;;13.27;5.00;;;;;;;1.60;86.36;101995.97;5074362;28;20205;-53
2024/01/28 01:40:52;;;;;;;9.90;4.70;;;;;;;1.55;86.74;101987.22;5065582;28;20251;-53
2024/01/28 01:43:21;;;;;;;13.87;5.00;;;;;;;1.55;86.77;101992.28;5073868;28;20201;-55
2024/01/28 01:45:52;;;;;;;13.20;4.43;;;;;;;1.52;86.16;101989.56;5073283;28;20239;-50
2024/01/28 01:48:20;;;;;;;14.73;4.80;;;;;;;1.44;86.44;101984.06;5065721;28;20201;-53
2024/01/28 01:50:49;;;;;;;14.23;4.53;;;;;;;1.41;87.38;101994.03;5073968;28;20229;-56
2024/01/28 01:53:17;;;;;;;11.83;3.97;;;;;;;1.36;87.07;101998.88;5073707;28;20240;-52
2024/01/28 01:55:45;;;;;;;13.10;4.60;;;;;;;1.37;87.32;102003.16;5065211;28;20198;-52
2024/01/28 01:58:14;;;;;;;10.90;4.70;;;;;;;1.36;87.91;102009.03;5069555;28;20205;-54
2024/01/28 02:00:42;;;;;;;13.40;4.90;;;;;;;1.39;86.95;102008.31;5073975;28;20250;-58
2024/01/28 02:03:13;;;;;;;18.17;5.00;;;;;;;1.43;87.32;102010.22;5061429;28;20571;-54
2024/01/28 02:05:41;;;;;;;11.90;4.90;;;;;;;1.45;87.74;102004.47;5073144;28;20516;-56
2024/01/28 02:08:10;;;;;;;12.63;5.03;;;;;;;1.49;87.62;102004.63;5074453;28;20197;-57
2024/01/28 02:10:38;;;;;;;13.77;4.67;;;;;;;1.51;87.35;102003.03;5073438;28;20577;-53
2024/01/28 02:13:05;;;;;;;9.47;4.23;;;;;;;1.53;87.68;101994.72;5071093;28;20304;-54
2024/01/28 02:15:37;;;;;;;12.73;4.23;;;;;;;1.51;87.06;101997.97;5069382;28;20739;-53
2024/01/28 02:18:06;;;;;;;13.40;4.80;;;;;;;1.52;87.37;101990.44;5072002;28;20205;-54
2024/01/28 02:20:35;;;;;;;14.30;4.77;;;;;;;1.53;86.65;101999.81;5073109;28;20186;-50
2024/01/28 02:23:05;;;;;;;11.17;4.33;;;;;;;1.55;87.35;101995.72;5073594;28;20259;-52
2024/01/28 02:25:35;;;;;;;17.93;5.37;;;;;;;1.55;87.05;101998.25;5071930;28;20212;-55
2024/01/28 02:28:03;;;;;;;12.07;5.10;;;;;;;1.58;87.24;101989.91;5068630;28;20221;-52
2024/01/28 02:30:32;;;;;;;14.23;5.20;;;;;;;1.60;87.51;101996.81;5056852;28;20765;-58
2024/01/28 02:33:00;;;;;;;15.23;5.17;;;;;;;1.65;86.75;102005.56;5064663;28;20279;-54
2024/01/28 02:35:28;;;;;;;12.73;4.50;;;;;;;1.67;86.90;102010.75;5063897;28;20340;-54
2024/01/28 02:37:56;;;;;;;16.73;4.30;;;;;;;1.67;87.39;102008.22;5073267;28;20300;-53
2024/01/28 02:40:24;;;;;;;10.13;3.93;;;;;;;1.68;87.30;102012.50;5069751;28;20312;-52
2024/01/28 02:42:53;;;;;;;14.27;4.97;;;;;;;1.68;87.11;102010.81;5072642;28;20197;-54
2024/01/28 02:45:21;;;;;;;13.53;4.47;;;;;;;1.70;87.03;102026.19;5072981;28;20197;-56
2024/01/28 02:47:49;;;;;;;14.70;4.87;;;;;;;1.72;86.91;102029.66;5065891;28;20206;-52
2024/01/28 02:50:17;;;;;;;11.20;4.43;;;;;;;1.74;87.24;102029.78;5072605;28;20306;-55
2024/01/28 02:52:45;;;;;;;13.13;4.40;;;;;;;1.77;86.37;102038.44;5072321;28;20205;-53
2024/01/28 02:55:13;;;;;;;12.50;4.60;;;;;;;1.79;87.36;102044.47;5073379;28;20233;-54
2024/01/28 02:57:42;;;;;;;11.03;4.20;;;;;;;1.82;86.92;102042.09;5072289;28;20205;-54
2024/01/28 03:00:12;;;;;;;13.27;4.47;;;;;;;1.84;86.77;102043.09;5072362;28;20205;-55
2024/01/28 03:02:40;;;;;;;16.67;4.40;;;;;;;1.86;86.64;102046.56;5072597;28;20666;-55
2024/01/28 03:05:10;;;;;;;11.53;4.33;;;;;;;1.89;87.13;102053.50;5067630;28;20202;-55
2024/01/28 03:07:38;;;;;;;12.97;4.20;;;;;;;1.90;87.64;102058.66;5060002;28;20190;-54
2024/01/28 03:10:07;;;;;;;11.70;4.13;;;;;;;1.93;86.84;102071.53;5072379;28;20217;-53
2024/01/28 03:12:35;;;;;;;12.10;4.33;;;;;;;1.94;87.61;102078.38;5070684;28;20201;-55
2024/01/28 03:15:03;;;;;;;14.17;4.43;;;;;;;1.96;87.62;102087.75;5066856;28;20734;-53
2024/01/28 03:17:33;;;;;;;11.70;4.43;;;;;;;1.99;87.07;102086.28;5071022;28;20652;-53
2024/01/28 03:20:01;;;;;;;12.87;4.37;;;;;;;2.02;87.54;102090.63;5070901;28;20241;-53
2024/01/28 03:22:28;;;;;;;15.40;3.97;;;;;;;2.03;87.38;102084.78;5070240;28;20291;-56
2024/01/28 03:24:56;;;;;;;11.20;4.07;;;;;;;2.03;86.75;102078.03;5058643;28;20210;-58
2024/01/28 03:27:24;;;;;;;10.27;3.77;;;;;;;2.01;87.12;102073.63;5063226;28;20664;-57
2024/01/28 03:29:52;;;;;;;11.80;3.93;;;;;;;2.02;87.89;102075.38;5072571;28;20220;-51
2024/01/28 03:32:20;;;;;;;9.10;3.47;;;;;;;2.04;87.32;102076.34;5058058;28;20576;-54
2024/01/28 03:34:50;;;;;;;8.23;3.80;;;;;;;2.04;88.12;102081.44;5063880;28;20198;-54
2024/01/28 03:37:18;;;;;;;10.77;3.63;;;;;;;2.06;88.45;102087.47;5069626;28;20205;-54
2024/01/28 03:39:46;;;;;;;10.43;3.23;;;;;;;2.06;87.98;102087.47;5071444;28;20205;-56
2024/01/28 03:42:14;;;;;;;10.37;3.80;;;;;;;2.09;87.71;102077.47;5066484;28;20529;-55
2024/01/28 03:44:41;;;;;;;10.43;3.50;;;;;;;2.09;87.58;102083.44;5062100;28;20202;-52
2024/01/28 03:47:09;;;;;;;14.47;3.60;;;;;;;2.10;88.04;102080.13;5071349;28;20255;-51
2024/01/28 03:49:37;;;;;;;8.83;3.53;;;;;;;2.12;88.33;102088.69;5062705;28;20260;-54
2024/01/28 03:52:07;;;;;;;11.33;3.97;;;;;;;2.14;88.41;102086.25;5071461;28;20678;-54
2024/01/28 03:54:35;;;;;;;12.43;3.80;;;;;;;2.17;88.75;102083.84;5070464;28;20672;-55
2024/01/28 03:57:03;;;;;;;7.80;3.10;;;;;;;2.16;88.89;102084.66;5071707;28;20666;-56
2024/01/28 03:59:32;;;;;;;12.33;4.67;;;;;;;2.17;88.74;102083.84;5072133;28;20258;-51
2024/01/28 04:02:01;;;;;;;10.87;4.17;;;;;;;2.17;89.21;102084.75;5068711;28;20229;-54
2024/01/28 04:04:29;;;;;;;10.03;4.00;;;;;;;2.20;88.91;102090.78;5069822;28;20597;-52
2024/01/28 04:06:57;;;;;;;10.33;4.07;;;;;;;2.21;88.70;102085.81;5069813;28;20672;-53
2024/01/28 04:09:26;;;;;;;8.57;3.87;;;;;;;2.22;88.44;102099.38;5053343;28;20601;-56
2024/01/28 04:11:54;;;;;;;7.87;3.70;;;;;;;2.22;88.91;102097.72;5063288;28;20205;-55
2024/01/28 04:14:22;;;;;;;10.80;4.27;;;;;;;2.23;89.34;102096.91;5071751;28;20193;-53
2024/01/28 04:16:50;;;;;;;11.43;4.20;;;;;;;2.22;89.16;102092.63;5068177;28;20685;-54
2024/01/28 04:19:18;;;;;;;9.87;4.10;;;;;;;2.24;89.38;102093.56;5061356;28;20300;-53
2024/01/28 04:21:46;;;;;;;11.07;4.33;;;;;;;2.25;89.64;102114.81;5071247;28;20292;-53
2024/01/28 04:24:14;;;;;;;12.10;3.83;;;;;;;2.28;89.67;102114.97;5072037;28;20660;-55
2024/01/28 04:26:43;;;;;;;11.77;4.50;;;;;;;2.31;89.45;102116.00;5060852;28;20202;-55
2024/01/28 04:29:11;;;;;;;12.83;4.17;;;;;;;2.33;89.92;102122.06;5060040;28;20220;-51
2024/01/28 04:31:42;;;;;;;11.53;3.77;;;;;;;2.36;90.12;102124.78;5070995;28;20317;-53
2024/01/28 04:34:10;;;;;;;10.50;3.37;;;;;;;2.37;90.54;102130.75;5071630;28;20224;-58
2024/01/28 04:36:38;;;;;;;9.47;3.63;;;;;;;2.37;90.15;102130.75;5071270;28;20266;-56
2024/01/28 04:39:07;;;;;;;7.80;3.33;;;;;;;2.37;90.25;102136.72;5070511;28;20292;-54
2024/01/28 04:41:35;;;;;;;10.47;3.70;;;;;;;2.38;89.92;102138.44;5066628;28;20193;-52
2024/01/28 04:44:05;;;;;;;10.63;4.20;;;;;;;2.39;90.67;102144.41;5071853;28;20208;-52
2024/01/28 04:46:33;;;;;;;8.60;3.17;;;;;;;2.40;91.23;102147.06;5069344;28;20311;-50
2024/01/28 04:49:03;;;;;;;11.43;3.80;;;;;;;2.41;91.39;102148.81;5071693;28;20657;-56
2024/01/28 04:51:31;;;;;;;9.70;3.93;;;;;;;2.42;91.31;102144.59;5070758;28;20221;-53
2024/01/28 04:53:59;;;;;;;8.90;3.50;;;;;;;2.45;91.10;102154.94;5075323;28;20240;-54
2024/01/28 04:56:27;;;;;;;9.57;3.63;;;;;;;2.47;90.98;102162.66;5074875;28;20205;-53
2024/01/28 04:58:55;;;;;;;10.13;3.60;;;;;;;2.48;91.83;102164.41;5067528;28;20210;-51
2024/01/28 05:01:25;;;;;;;11.23;3.67;;;;;;;2.49;91.91;102173.78;5070805;28;20221;-56
2024/01/28 05:03:53;;;;;;;7.23;3.50;;;;;;;2.50;91.46;102180.63;5063679;28;20205;-59
2024/01/28 05:06:21;;;;;;;13.40;3.87;;;;;;;2.49;91.23;102171.25;5073764;28;20201;-54
2024/01/28 05:08:49;;;;;;;6.47;3.80;;;;;;;2.49;91.69;102171.25;5073677;28;20722;-54
2024/01/28 05:11:17;;;;;;;8.60;3.33;;;;;;;2.48;91.60;102185.66;5074732;28;20224;-52
2024/01/28 05:13:44;;;;;;;8.43;3.60;;;;;;;2.49;92.51;102191.59;5069057;28;20213;-52
2024/01/28 05:16:12;;;;;;;8.30;3.60;;;;;;;2.49;92.24;102192.47;5069126;28;20669;-55
2024/01/28 05:18:41;;;;;;;8.13;3.70;;;;;;;2.51;92.94;102195.13;5064864;28;20586;-52
2024/01/28 05:21:09;;;;;;;7.43;3.43;;;;;;;2.50;93.12;102186.59;5066776;28;20643;-54
2024/01/28 05:23:37;;;;;;;8.13;3.83;;;;;;;2.53;93.21;102196.06;5064312;28;20607;-51
2024/01/28 05:26:05;;;;;;;7.10;3.60;;;;;;;2.52;93.35;102191.78;5068107;28;20259;-53
2024/01/28 05:28:33;;;;;;;8.53;3.80;;;;;;;2.53;92.72;102193.53;5061835;28;20661;-55
2024/01/28 05:31:01;;;;;;;9.63;3.50;;;;;;;2.53;93.27;102189.31;5055099;28;20214;-52
2024/01/28 05:33:29;;;;;;;9.07;3.60;;;;;;;2.55;93.52;102191.97;5063817;28;20625;-51
2024/01/28 05:35:59;;;;;;;8.20;3.53;;;;;;;2.56;93.59;102193.69;5061216;28;20639;-53
2024/01/28 05:38:29;;;;;;;9.73;3.70;;;;;;;2.56;94.21;102196.25;5062068;28;20209;-55
2024/01/28 05:40:56;;;;;;;6.37;3.20;;;;;;;2.57;93.55;102196.31;5069420;28;20232;-54
2024/01/28 05:43:24;;;;;;;9.67;3.90;;;;;;;2.57;94.37;102201.41;5066240;28;20244;-52
2024/01/28 05:45:52;;;;;;;9.50;4.23;;;;;;;2.55;94.15;102197.91;5058806;28;20205;-54
2024/01/28 05:48:20;;;;;;;6.63;3.93;;;;;;;2.52;94.94;102201.97;5074191;28;20292;-54
2024/01/28 05:50:48;;;;;;;8.37;3.70;;;;;;;2.52;95.04;102202.84;5071384;28;20233;-54
2024/01/28 05:53:17;;;;;;;7.60;3.50;;;;;;;2.53;94.70;102203.69;5074117;28;20221;-55
2024/01/28 05:55:45;;;;;;;9.70;4.03;;;;;;;2.52;94.86;102201.97;5064658;28;20589;-51
2024/01/28 05:58:13;;;;;;;8.57;4.00;;;;;;;2.53;95.83;102214.75;5073925;28;20258;-57
2024/01/28 06:00:41;;;;;;;7.53;3.53;;;;;;;2.56;95.97;102217.47;5070615;28;20671;-53
2024/01/28 06:03:09;;;;;;;10.63;4.30;;;;;;;2.55;96.39;102227.59;5073481;28;20201;-56
2024/01/28 06:05:37;;;;;;;9.23;3.90;;;;;;;2.56;95.61;102225.09;5067903;28;20256;-52
2024/01/28 06:08:06;;;;;;;9.17;4.30;;;;;;;2.55;95.44;102223.38;5059427;28;20244;-52
2024/01/28 06:10:36;;;;;;;7.90;4.13;;;;;;;2.55;96.16;102225.03;5073431;28;20205;-52
2024/01/28 06:13:04;;;;;;;6.53;4.00;;;;;;;2.54;96.46;102225.81;5069989;28;20214;-54
2024/01/28 06:15:32;;;;;;;10.43;4.23;;;;;;;2.55;96.47;102227.59;5072880;28;20653;-54
2024/01/28 06:18:01;;;;;;;9.93;4.37;;;;;;;2.57;97.15;102231.94;5073542;28;20212;-55
2024/01/28 06:20:31;;;;;;;9.53;4.33;;;;;;;2.59;97.68;102234.59;5072809;28;20201;-56
2024/01/28 06:22:59;;;;;;;7.70;3.60;;;;;;;2.61;97.48;102243.16;5063769;28;20272;-50
2024/01/28 06:25:26;;;;;;;7.20;4.43;;;;;;;2.64;96.82;102241.69;5070801;28;20239;-54
2024/01/28 06:27:56;;;;;;;12.57;4.33;;;;;;;2.66;97.06;102249.41;5066663;28;20202;-55
2024/01/28 06:30:26;;;;;;;6.90;3.93;;;;;;;2.66;97.52;102245.19;5063229;28;20209;-55
2024/01/28 06:32:54;;;;;;;14.97;4.50;;;;;;;2.69;97.54;102236.88;5072561;28;20247;-54
2024/01/28 06:35:22;;;;;;;7.90;4.20;;;;;;;2.70;97.04;102240.28;5073269;28;20209;-53
2024/01/28 06:37:50;;;;;;;9.50;4.17;;;;;;;2.71;97.32;102249.66;5073498;28;20698;-53
2024/01/28 06:40:18;;;;;;;9.50;4.30;;;;;;;2.71;97.80;102247.13;5072988;28;20197;-50
2024/01/28 06:42:45;;;;;;;8.50;3.97;;;;;;;2.73;97.83;102246.44;5073529;28;20190;-54
2024/01/28 06:45:15;;;;;;;6.57;3.40;;;;;;;2.75;97.51;102249.03;5072282;28;20244;-54
2024/01/28 06:47:45;;;;;;;8.87;4.57;;;;;;;2.76;98.04;102250.78;5056115;28;20212;-55
2024/01/28 06:50:14;;;;;;;6.93;3.90;;;;;;;2.79;98.42;102249.28;5069226;28;20229;-51
2024/01/28 06:52:43;;;;;;;7.40;3.80;;;;;;;2.79;98.22;102244.19;5065326;28;20221;-57
2024/01/28 06:55:11;;;;;;;9.83;4.60;;;;;;;2.81;97.35;102255.34;5071316;28;20213;-54
2024/01/28 06:57:39;;;;;;;5.37;3.17;;;;;;;2.80;97.65;102253.63;5069295;28;20637;-55
2024/01/28 07:00:10;;;;;;;6.90;3.37;;;;;;;2.81;98.22;102251.94;5071123;28;20576;-55
2024/01/28 07:02:40;;;;;;;4.90;2.97;;;;;;;2.81;98.39;102255.34;5068660;28;20201;-57
2024/01/28 07:05:09;;;;;;;9.63;4.03;;;;;;;2.82;97.82;102262.19;5064867;28;20708;-55
2024/01/28 07:07:37;;;;;;;7.07;3.67;;;;;;;2.83;98.62;102263.06;5070462;28;20205;-52
2024/01/28 07:10:06;;;;;;;7.60;3.40;;;;;;;2.87;98.24;102262.44;5069497;28;20210;-55
2024/01/28 07:12:35;;;;;;;5.73;3.53;;;;;;;2.88;98.35;102265.09;5069666;28;20296;-57
2024/01/28 07:15:03;;;;;;;6.13;3.10;;;;;;;2.90;98.76;102260.94;5070435;28;20209;-55
2024/01/28 07:17:31;;;;;;;5.27;2.97;;;;;;;2.92;98.50;102267.81;5070865;28;20697;-53
2024/01/28 07:20:00;;;;;;;5.93;3.53;;;;;;;2.94;98.94;102271.31;5071426;28;20236;-53
2024/01/28 07:22:28;;;;;;;7.60;3.47;;;;;;;2.95;98.53;102273.94;5063816;28;20232;-54
2024/01/28 07:24:57;;;;;;;5.90;3.60;;;;;;;2.97;98.00;102281.66;5072754;28;20232;-50
2024/01/28 07:27:25;;;;;;;5.07;2.90;;;;;;;2.99;98.00;102277.53;5058421;28;20228;-55
2024/01/28 07:29:52;;;;;;;6.17;3.53;;;;;;;2.99;98.17;102287.72;5063052;28;20206;-52
2024/01/28 07:32:20;;;;;;;7.47;3.17;;;;;;;3.00;98.46;102279.28;5071279;28;20720;-51
2024/01/28 07:34:48;;;;;;;5.60;3.50;;;;;;;3.01;98.13;102287.00;5066309;28;20233;-50
2024/01/28 07:37:18;;;;;;;5.10;3.43;;;;;;;3.06;98.62;102274.53;5065568;28;20296;-55
2024/01/28 07:39:46;;;;;;;6.13;3.50;;;;;;;3.18;98.97;102272.66;5062195;28;20212;-57
2024/01/28 07:42:14;;;;;;;7.97;3.50;;;;;;;3.29;98.26;102271.56;5068439;28;20303;-55
2024/01/28 07:44:42;;;;;;;7.13;3.10;;;;;;;3.35;97.80;102271.00;5062463;28;20276;-54
2024/01/28 07:47:10;;;;;;;4.53;3.03;;;;;;;3.36;97.58;102273.66;5066538;28;20236;-52
2024/01/28 07:49:37;;;;;;;3.87;2.80;;;;;;;3.37;97.16;102282.16;5068440;28;20601;-56
2024/01/28 07:52:06;;;;;;;5.90;2.90;;;;;;;3.36;97.21;102288.94;5071550;28;20623;-56
2024/01/28 07:54:36;;;;;;;5.17;3.40;;;;;;;3.34;96.90;102287.97;5069548;28;20317;-55
2024/01/28 07:57:04;;;;;;;5.40;3.00;;;;;;;3.37;97.28;102290.69;5071425;28;20209;-61
2024/01/28 07:59:32;;;;;;;7.03;2.97;;;;;;;3.44;97.23;102285.91;5069251;28;20681;-56
2024/01/28 08:02:00;;;;;;;6.17;3.07;;;;;;;3.54;96.75;102290.72;5072390;28;20201;-54
2024/01/28 08:04:30;;;;;;;4.23;3.00;;;;;;;3.58;95.78;102293.50;5077850;28;20206;-53
2024/01/28 08:06:58;;;;;;;4.83;2.93;;;;;;;3.60;95.77;102286.78;5068285;28;20548;-54
2024/01/28 08:09:27;;;;;;;7.03;3.20;;;;;;;3.62;95.67;102279.25;5069784;28;20193;-53
2024/01/28 08:11:57;;;;;;;4.97;3.20;;;;;;;3.65;95.77;102289.63;5070012;28;20747;-58
2024/01/28 08:14:27;;;;;;;6.33;2.93;;;;;;;3.72;95.33;102290.78;5062669;28;20241;-54
2024/01/28 08:16:56;;;;;;;4.90;3.07;;;;;;;3.76;95.40;102295.28;5070497;28;20239;-56
2024/01/28 08:19:23;;;;;;;5.93;3.20;;;;;;;3.78;94.86;102291.13;5067503;28;20201;-54
2024/01/28 08:21:52;;;;;;;4.33;2.90;;;;;;;3.82;94.86;102291.34;5066549;28;20197;-53
2024/01/28 08:24:20;;;;;;;5.80;2.67;;;;;;;3.90;94.67;102294.28;5067380;28;20209;-52
2024/01/28 08:26:48;;;;;;;4.33;2.77;;;;;;;3.96;94.47;102291.19;5070626;28;20209;-56
2024/01/28 08:29:17;;;;;;;3.93;2.77;;;;;;;4.00;93.85;102298.19;5064967;28;20645;-55
2024/01/28 08:31:45;;;;;;;5.67;2.97;;;;;;;4.04;94.03;102310.31;5062340;28;20683;-56
2024/01/28 08:34:13;;;;;;;3.43;2.50;;;;;;;4.18;93.00;102316.13;5067505;28;20290;-53
2024/01/28 08:36:41;;;;;;;4.83;2.60;;;;;;;4.18;92.70;102314.44;5069088;28;20568;-57
2024/01/28 08:39:10;;;;;;;5.23;2.50;;;;;;;4.21;92.61;102303.53;5068301;28;20207;-53
2024/01/28 08:41:38;;;;;;;6.07;2.57;;;;;;;4.24;92.75;102316.44;5064060;28;20739;-55
2024/01/28 08:44:07;;;;;;;4.07;2.83;;;;;;;4.25;92.67;102305.44;5070813;28;20652;-54
2024/01/28 08:46:39;;;;;;;5.20;2.23;;;;;;;4.26;91.87;102307.19;5071503;28;20224;-52
2024/01/28 08:49:07;;;;;;;2.83;1.90;;;;;;;4.31;91.97;102321.94;5070923;28;20205;-53
2024/01/28 08:51:34;;;;;;;3.00;2.50;;;;;;;4.31;91.30;102311.72;5059614;28;20202;-52
2024/01/28 08:54:03;;;;;;;2.73;2.13;;;;;;;4.32;91.38;102322.81;5060371;28;20676;-51
2024/01/28 08:56:30;;;;;;;2.90;2.20;;;;;;;4.39;91.02;102329.97;5060070;28;20640;-53
2024/01/28 08:58:58;;;;;;;3.90;2.20;;;;;;;4.40;90.46;102330.84;5067258;28;20220;-57
2024/01/28 09:01:26;;;;;;;4.33;2.00;;;;;;;4.47;90.62;102333.78;5068473;28;20209;-59
2024/01/28 09:03:55;;;;;;;2.43;2.07;;;;;;;4.55;90.46;102331.63;5069920;28;20209;-53
2024/01/28 09:06:23;;;;;;;3.50;2.13;;;;;;;4.50;89.38;102331.41;5069770;28;20206;-53
2024/01/28 09:08:52;;;;;;;4.90;2.40;;;;;;;4.55;89.94;102336.72;5068302;28;20703;-54
2024/01/28 09:11:20;;;;;;;3.60;2.27;;;;;;;4.62;89.59;102337.91;5065355;28;20205;-53
2024/01/28 09:13:47;;;;;;;4.00;2.43;;;;;;;4.73;89.89;102341.88;5067643;28;20214;-52
2024/01/28 09:16:15;;;;;;;3.33;2.40;;;;;;;4.83;89.10;102339.84;5062946;28;20298;-55
2024/01/28 09:18:44;;;;;;;3.37;2.20;;;;;;;4.92;89.30;102333.41;5069439;28;20587;-52
2024/01/28 09:21:13;;;;;;;3.67;2.37;;;;;;;5.01;89.47;102324.53;5070093;28;20209;-54
2024/01/28 09:23:41;;;;;;;2.10;1.50;;;;;;;5.10;88.58;102326.63;5061933;28;20764;-56
2024/01/28 09:26:09;;;;;;;4.57;1.90;;;;;;;5.16;88.53;102326.06;5065097;28;20201;-53
2024/01/28 09:28:37;;;;;;;4.47;1.77;;;;;;;5.19;87.60;102323.63;5064717;28;20241;-54
2024/01/28 09:31:07;;;;;;;2.03;1.40;;;;;;;5.11;86.61;102330.94;5066325;28;20652;-54
2024/01/28 09:33:35;;;;;;;7.03;1.73;;;;;;;5.09;87.25;102335.97;5061156;28;20214;-51
2024/01/28 09:36:04;;;;;;;2.70;1.60;;;;;;;5.15;87.01;102332.81;5064030;28;20288;-52
2024/01/28 09:38:33;;;;;;;3.17;1.60;;;;;;;5.21;86.80;102340.78;5071468;28;20220;-56
2024/01/28 09:41:11;;;;;;;1.93;1.27;;;;;;;5.26;86.41;102343.56;5070140;28;20584;-54
2024/01/28 09:43:41;;;;;;;1.73;1.27;;;;;;;5.33;87.03;102337.94;5068933;28;20193;-52
2024/01/28 09:46:09;;;;;;;2.97;1.60;;;;;;;5.39;86.27;102342.47;5070418;28;20632;-55
2024/01/28 09:48:38;;;;;;;2.87;2.10;;;;;;;5.42;85.79;102340.06;5074569;28;20625;-54
2024/01/28 09:51:09;;;;;;;4.67;1.90;;;;;;;5.51;85.89;102335.34;5064715;28;20767;-56
2024/01/28 09:53:39;;;;;;;3.67;1.80;;;;;;;5.57;85.76;102330.53;5071440;28;20613;-53
2024/01/28 09:56:10;;;;;;;4.67;2.10;;;;;;;5.64;84.55;102339.34;5073749;28;20232;-54
2024/01/28 09:58:39;;;;;;;4.30;2.03;;;;;;;5.65;84.88;102341.97;5073909;28;20201;-53
2024/01/28 10:01:08;;;;;;;3.70;2.00;;;;;;;5.67;84.89;102342.03;5068644;28;20740;-53
2024/01/28 10:03:36;;;;;;;3.10;1.90;;;;;;;5.75;84.35;102343.28;5072749;28;20201;-54
2024/01/28 10:06:05;;;;;;;3.57;1.90;;;;;;;5.79;84.39;102340.91;5074063;28;20209;-54
2024/01/28 10:08:33;;;;;;;3.30;1.87;;;;;;;5.85;84.39;102347.09;5073686;28;20240;-54
2024/01/28 10:11:02;;;;;;;4.23;2.30;;;;;;;5.88;82.82;102347.25;5070005;28;20201;-56
2024/01/28 10:13:30;;;;;;;2.93;1.90;;;;;;;5.78;83.29;102357.06;5075084;28;20251;-54
2024/01/28 10:15:59;;;;;;;4.43;1.93;;;;;;;5.72;83.40;102358.47;5071362;28;20300;-59
2024/01/28 10:18:27;;;;;;;2.13;1.80;;;;;;;5.66;83.17;102353.94;5073575;28;20198;-53
2024/01/28 10:20:55;;;;;;;2.93;2.00;;;;;;;5.62;83.48;102344.38;5065138;28;20201;-54
2024/01/28 10:23:23;;;;;;;2.50;2.00;;;;;;;5.59;84.17;102351.91;5065532;28;20205;-53
2024/01/28 10:25:52;;;;;;;5.20;2.30;;;;;;;5.56;84.06;102347.56;5070671;28;20198;-56
2024/01/28 10:28:21;;;;;;;2.83;2.23;;;;;;;5.60;85.05;102346.00;5072423;28;20297;-54
2024/01/28 10:30:50;;;;;;;3.53;2.60;;;;;;;5.58;84.40;102355.28;5071591;28;20206;-61
2024/01/28 10:33:18;;;;;;;4.57;2.07;;;;;;;5.52;84.70;102347.31;5070140;28;20229;-56
2024/01/28 10:35:47;;;;;;;3.83;2.10;;;;;;;5.47;84.29;102352.22;5066423;28;20696;-55
2024/01/28 10:38:19;;;;;;;2.63;1.80;;;;;;;5.42;84.52;102352.84;5064791;28;20209;-53
2024/01/28 10:40:50;;;;;;;3.40;2.10;;;;;;;5.41;84.86;102354.50;5071432;28;20228;-56
2024/01/28 10:43:25;;;;;;;3.53;2.10;;;;;;;5.38;85.39;102356.94;5066076;28;20233;-53
2024/01/28 10:45:57;;;;;;;4.20;2.10;;;;;;;5.37;85.37;102364.50;5072171;28;20201;-54
2024/01/28 10:48:25;;;;;;;3.63;1.83;;;;;;;5.31;85.35;102363.44;5059161;28;20660;-54
2024/01/28 10:50:54;;;;;;;3.17;1.93;;;;;;;5.36;86.22;102367.88;5069068;28;20634;-53
2024/01/28 10:53:25;;;;;;;2.60;2.00;;;;;;;5.40;86.83;102365.53;5065543;28;20254;-53
2024/01/28 10:55:54;;;;;;;5.83;2.40;;;;;;;5.39;85.96;102361.22;5071849;28;20707;-55
2024/01/28 10:58:24;;;;;;;6.67;3.67;;;;;;;5.38;85.92;102376.50;5068938;28;20198;-58
2024/01/28 11:00:52;;;;;;;6.70;3.57;;;;;;;5.35;85.67;102371.25;5062461;28;20217;-54
2024/01/28 11:03:20;;;;;;;6.57;3.87;;;;;;;5.27;85.82;102376.00;5071532;28;20677;-55
2024/01/28 11:05:49;;;;;;;5.23;3.47;;;;;;;5.16;86.64;102372.06;5068501;28;20197;-55
2024/01/28 11:08:16;;;;;;;6.63;3.70;;;;;;;5.06;86.92;102368.16;5071024;28;20640;-51
2024/01/28 11:10:44;;;;;;;5.00;3.37;;;;;;;5.04;88.29;102382.53;5069331;28;20197;-52
2024/01/28 11:13:12;;;;;;;5.73;3.83;;;;;;;5.03;87.88;102378.25;5068679;28;20213;-54
2024/01/28 11:15:43;;;;;;;4.00;3.47;;;;;;;4.96;88.54;102371.06;5069934;28;20586;-52
2024/01/28 11:18:13;;;;;;;6.17;4.00;;;;;;;4.99;89.02;102384.00;5066324;28;20399;-55
2024/01/28 11:20:42;;;;;;;5.97;3.73;;;;;;;4.93;88.80;102384.56;5068466;28;20254;-52
2024/01/28 11:23:16;;;;;;;5.70;3.40;;;;;;;4.90;89.85;102380.97;5071294;28;20205;-54
2024/01/28 11:25:45;;;;;;;4.63;3.80;;;;;;;4.92;89.76;102384.50;5057647;28;20202;-53
2024/01/28 11:28:16;;;;;;;6.07;3.97;;;;;;;4.96;89.80;102391.50;5059009;28;20657;-58
2024/01/28 11:30:47;;;;;;;4.93;3.83;;;;;;;4.98;89.80;102392.47;5052495;28;20296;-55
2024/01/28 11:33:17;;;;;;;5.90;4.20;;;;;;;5.03;89.66;102393.56;5069818;28;20211;-54
2024/01/28 11:35:46;;;;;;;5.13;4.30;;;;;;;5.08;89.14;102398.13;5067409;28;20704;-55